Time;durP1;ratioP1;P1;durP2;ratioP2;P2;SDS_P1;SDS_P2;PMS_P1;PMS_P2;Temp;Humidity;BMP_temperature;BMP_pressure;BME280_temperature;BME280_humidity;BME280_pressure;Samples;Min_cycle;Max_cycle;Signal;HPM_P1;HPM_P2
2022/11/17 00:01:51;;;;;;;80.57;55.37;;;;;;;12.39;91.62;98358.44;5046339;28;20194;-54
2022/11/17 00:04:20;;;;;;;72.37;51.03;;;;;;;12.34;92.08;98350.75;5054865;28;20199;-54
2022/11/17 00:06:46;;;;;;;84.10;54.13;;;;;;;12.14;92.86;98346.66;5039522;28;20211;-53
2022/11/17 00:09:16;;;;;;;86.40;54.27;;;;;;;12.09;93.00;98351.84;5034216;28;20682;-54
2022/11/17 00:14:33;;;;;;;82.63;54.40;;;;;;;12.13;93.45;98357.81;5034331;28;20718;-54
2022/11/17 00:17:00;;;;;;;82.50;55.93;;;;;;;12.01;93.71;98339.88;5034914;28;20185;-55
2022/11/17 00:22:13;;;;;;;82.13;53.80;;;;;;;12.06;93.57;98344.13;5034329;28;20195;-54
2022/11/17 00:24:39;;;;;;;76.23;53.10;;;;;;;12.01;93.50;98330.44;5034078;28;20659;-54
2022/11/17 00:27:06;;;;;;;79.83;52.40;;;;;;;12.15;92.58;98343.19;5033942;28;20188;-54
2022/11/17 00:29:33;;;;;;;81.13;53.33;;;;;;;11.81;93.24;98314.31;5046597;28;20200;-54
2022/11/17 00:34:45;;;;;;;74.90;51.23;;;;;;;11.91;94.79;98351.13;5053883;28;20621;-54
2022/11/17 00:37:15;;;;;;;76.13;52.33;;;;;;;11.96;95.16;98352.81;5053499;28;20188;-54
2022/11/17 00:39:42;;;;;;;74.03;51.93;;;;;;;12.05;94.42;98357.88;5053613;28;20286;-54
2022/11/17 00:42:09;;;;;;;81.83;52.40;;;;;;;12.09;93.86;98353.53;5047318;28;20369;-55
2022/11/17 00:44:36;;;;;;;77.17;53.43;;;;;;;12.11;93.91;98357.84;5052716;28;20193;-54
2022/11/17 00:47:02;;;;;;;76.37;54.20;;;;;;;12.13;93.54;98352.66;5053575;28;20196;-55
2022/11/17 00:49:29;;;;;;;71.33;51.90;;;;;;;12.13;93.71;98355.25;5053295;28;20184;-55
2022/11/17 00:51:58;;;;;;;77.40;53.33;;;;;;;12.19;93.57;98360.34;5053748;28;20188;-54
2022/11/17 00:54:24;;;;;;;79.13;51.73;;;;;;;12.17;93.83;98362.91;5048088;28;20192;-55
2022/11/17 00:56:51;;;;;;;70.63;50.77;;;;;;;11.74;92.84;98274.06;5053835;28;20196;-55
2022/11/17 00:59:18;;;;;;;74.40;52.40;;;;;;;12.30;92.80;98348.22;5038843;28;20208;-55
2022/11/17 01:01:45;;;;;;;73.10;52.10;;;;;;;12.33;92.53;98359.34;5033795;28;20222;-55
2022/11/17 01:04:13;;;;;;;75.13;50.83;;;;;;;12.37;92.04;98355.03;5033800;28;20212;-55
2022/11/17 01:06:42;;;;;;;72.93;51.63;;;;;;;12.35;91.65;98352.47;5033656;28;20200;-55
2022/11/17 01:09:13;;;;;;;76.07;50.00;;;;;;;12.40;91.21;98348.13;5033344;28;20189;-55
2022/11/17 01:11:41;;;;;;;77.43;49.73;;;;;;;12.40;90.58;98345.56;5033634;28;20196;-55
2022/11/17 01:14:11;;;;;;;74.90;51.57;;;;;;;12.41;90.43;98344.66;5033554;28;20189;-55
2022/11/17 01:16:38;;;;;;;78.37;50.93;;;;;;;12.46;90.26;98336.06;5033773;28;20223;-55
2022/11/17 01:19:06;;;;;;;69.73;47.73;;;;;;;12.15;90.18;98276.25;5033535;28;20251;-55
2022/11/17 01:21:33;;;;;;;71.53;48.73;;;;;;;12.50;89.75;98335.16;5033303;28;20193;-55
2022/11/17 01:24:01;;;;;;;67.03;48.17;;;;;;;12.47;89.73;98330.88;5046953;28;20219;-55
2022/11/17 01:26:33;;;;;;;68.97;47.10;;;;;;;12.48;89.02;98324.00;5053478;28;20254;-55
2022/11/17 01:29:01;;;;;;;64.23;47.87;;;;;;;12.40;89.12;98314.66;5053321;28;20192;-55
2022/11/17 01:31:30;;;;;;;70.23;49.80;;;;;;;12.28;90.42;98311.31;5052933;28;20235;-55
2022/11/17 01:33:57;;;;;;;72.40;50.17;;;;;;;12.16;90.88;98314.88;5044576;28;20197;-55
2022/11/17 01:36:27;;;;;;;74.57;49.03;;;;;;;12.12;91.74;98315.75;5032841;28;20224;-55
2022/11/17 01:38:54;;;;;;;68.63;49.47;;;;;;;12.21;92.00;98307.97;5033173;28;20200;-55
2022/11/17 01:41:23;;;;;;;72.80;51.90;;;;;;;12.28;91.90;98309.59;5033097;28;20197;-55
2022/11/17 01:43:53;;;;;;;74.67;50.60;;;;;;;12.31;91.31;98306.13;5032936;28;20230;-55
2022/11/17 01:46:31;;;;;;;71.90;49.50;;;;;;;12.32;91.19;98308.72;5032918;28;20203;-55
2022/11/17 01:49:02;;;;;;;68.47;49.17;;;;;;;12.34;90.99;98314.69;5046575;28;20204;-55
2022/11/17 01:51:33;;;;;;;74.73;50.50;;;;;;;12.28;91.04;98308.75;5033255;28;20188;-55
2022/11/17 01:54:00;;;;;;;73.53;50.63;;;;;;;12.30;91.75;98313.03;5032779;28;20197;-55
2022/11/17 01:56:32;;;;;;;68.27;48.33;;;;;;;12.30;92.34;98314.75;5032551;28;20220;-55
2022/11/17 01:59:05;;;;;;;68.57;48.93;;;;;;;12.24;92.53;98312.22;5032663;28;20201;-55
2022/11/17 02:01:33;;;;;;;73.90;49.37;;;;;;;12.23;92.83;98316.53;5032929;28;20208;-55
2022/11/17 02:04:00;;;;;;;70.97;46.83;;;;;;;12.17;92.54;98315.72;5033039;28;20242;-55
2022/11/17 02:06:33;;;;;;;63.00;44.83;;;;;;;12.15;93.25;98305.44;5032669;28;20208;-55
2022/11/17 02:09:02;;;;;;;71.80;48.47;;;;;;;12.11;93.11;98298.63;5032904;28;20200;-55
2022/11/17 02:11:34;;;;;;;72.07;49.40;;;;;;;12.12;92.98;98296.88;5032634;28;20192;-55
2022/11/17 02:14:04;;;;;;;74.23;49.17;;;;;;;12.07;93.34;98299.50;5032322;28;20181;-55
2022/11/17 02:16:31;;;;;;;70.63;47.63;;;;;;;12.10;93.98;98309.78;5032658;28;20274;-55
2022/11/17 02:18:58;;;;;;;65.67;48.50;;;;;;;12.05;94.51;98303.81;5032813;28;20250;-55
2022/11/17 02:22:01;;;;;;;70.73;49.07;;;;;;;12.06;94.83;98296.97;5051745;28;20200;-55
2022/11/17 02:25:15;;;;;;;64.27;47.13;;;;;;;12.04;94.84;98294.38;5039729;28;20191;-55
2022/11/17 02:27:56;;;;;;;73.00;50.20;;;;;;;12.05;94.37;98283.22;5052084;28;20192;-55
2022/11/17 02:30:23;;;;;;;75.88;54.30;;;;;;;12.01;94.19;98270.38;5051777;28;20432;-55
2022/11/17 02:33:02;;;;;;;68.70;49.03;;;;;;;12.04;93.90;98278.94;5052248;28;20224;-55
2022/11/17 02:35:36;;;;;;;70.53;49.87;;;;;;;12.00;93.53;98277.28;5052126;28;20212;-55
2022/11/17 02:38:14;;;;;;;69.00;48.90;;;;;;;11.99;93.32;98277.28;5052097;28;20188;-55
2022/11/17 02:40:46;;;;;;;70.22;49.55;;;;;;;11.96;93.18;98273.00;5051725;28;20872;-55
2022/11/17 02:46:06;;;;;;;70.07;49.03;;;;;;;11.90;93.64;98283.34;5052165;28;20199;-55
2022/11/17 02:48:37;;;;;;;73.50;50.43;;;;;;;11.92;94.00;98281.59;5052168;28;20192;-55
2022/11/17 02:51:06;;;;;;;72.70;48.13;;;;;;;11.89;93.42;98270.50;5052031;28;20555;-55
2022/11/17 02:53:34;;;;;;;71.07;47.87;;;;;;;11.82;93.90;98261.97;5052539;28;20192;-55
2022/11/17 02:56:02;;;;;;;72.53;48.63;;;;;;;11.73;94.24;98252.59;5072162;28;20212;-55
2022/11/17 02:58:30;;;;;;;75.87;51.10;;;;;;;11.78;94.61;98257.75;5072519;28;20646;-55
2022/11/17 03:01:14;;;;;;;66.23;48.50;;;;;;;11.69;94.85;98262.94;5071835;28;20642;-55
2022/11/17 03:03:56;;;;;;;73.63;50.17;;;;;;;11.67;95.37;98259.50;5072052;28;20604;-55
2022/11/17 03:06:32;;;;;;;73.47;49.10;;;;;;;11.64;94.82;98257.81;5072178;28;20195;-55
2022/11/17 03:09:10;;;;;;;70.97;49.70;;;;;;;11.55;95.77;98249.31;5071754;28;20191;-55
2022/11/17 03:11:44;;;;;;;71.90;49.13;;;;;;;11.43;95.54;98237.38;5072667;28;20349;-55
2022/11/17 03:14:20;;;;;;;66.30;47.53;;;;;;;11.56;95.32;98248.44;5063792;28;20198;-55
2022/11/17 03:16:55;;;;;;;76.45;54.90;;;;;;;11.55;95.50;98239.03;5050986;28;20569;-55
2022/11/17 03:19:29;;;;;;;71.67;50.93;;;;;;;11.59;95.52;98241.53;5032274;28;20197;-55
2022/11/17 03:22:03;;;;;;;74.60;50.20;;;;;;;11.60;95.17;98247.53;5031869;28;20223;-55
2022/11/17 03:24:34;;;;;;;79.00;51.80;;;;;;;11.56;95.15;98256.16;5032009;28;20238;-55
2022/11/17 03:27:07;;;;;;;72.60;49.47;;;;;;;11.54;95.69;98256.16;5035485;28;20197;-55
2022/11/17 03:29:41;;;;;;;73.80;50.47;;;;;;;11.55;95.64;98257.88;5035618;28;20247;-55
2022/11/17 03:32:10;;;;;;;71.87;50.43;;;;;;;11.61;95.26;98254.41;5035603;28;20228;-55
2022/11/17 03:34:42;;;;;;;76.60;48.93;;;;;;;11.59;95.28;98264.69;5035673;28;20185;-55
2022/11/17 03:37:12;;;;;;;75.97;50.90;;;;;;;11.48;95.46;98251.06;5035381;28;20694;-55
2022/11/17 03:39:42;;;;;;;80.07;53.03;;;;;;;11.53;95.10;98263.91;5035391;28;20643;-55
2022/11/17 03:42:14;;;;;;;79.33;52.47;;;;;;;11.53;95.44;98271.63;5035173;28;20189;-55
2022/11/17 03:44:47;;;;;;;82.93;55.70;;;;;;;11.47;95.33;98261.38;5035497;28;20251;-55
2022/11/17 03:47:17;;;;;;;84.43;54.83;;;;;;;11.47;95.84;98261.38;5035181;28;20201;-55
2022/11/17 03:49:51;;;;;;;81.47;55.47;;;;;;;11.45;96.27;98250.25;5035173;28;20196;-56
2022/11/17 03:52:18;;;;;;;91.83;60.77;;;;;;;11.26;95.88;98241.81;5042506;28;20196;-55
2022/11/17 03:54:45;;;;;;;92.93;62.70;;;;;;;11.29;96.56;98261.50;5055160;28;20527;-55
2022/11/17 03:57:16;;;;;;;83.47;55.87;;;;;;;11.33;96.77;98269.19;5062947;28;20223;-55
2022/11/17 03:59:55;;;;;;;81.63;53.00;;;;;;;11.36;96.21;98271.75;5075280;28;20581;-55
2022/11/17 04:02:24;;;;;;;85.80;61.15;;;;;;;11.36;96.63;98264.03;5074400;28;20422;-55
2022/11/17 04:05:06;;;;;;;82.37;55.53;;;;;;;11.43;96.53;98265.66;5061931;28;20196;-55
2022/11/17 04:07:33;;;;;;;78.03;52.83;;;;;;;11.44;96.44;98254.53;5055126;28;20185;-55
2022/11/17 04:10:00;;;;;;;82.47;53.83;;;;;;;11.41;96.06;98264.84;5054588;28;20188;-55
2022/11/17 04:17:57;;;;;;;77.43;53.13;;;;;;;11.40;96.86;98242.53;5074616;28;20190;-55
2022/11/17 04:20:24;;;;;;;79.07;52.70;;;;;;;11.40;96.93;98237.41;5074523;28;20188;-55
2022/11/17 04:23:05;;;;;;;76.70;53.10;;;;;;;11.34;97.29;98237.47;5074354;28;20719;-54
2022/11/17 04:31:02;;;;;;;83.80;55.50;;;;;;;11.30;97.38;98233.19;5067078;28;20333;-55
2022/11/17 04:33:29;;;;;;;85.23;55.57;;;;;;;11.35;97.73;98239.16;5074348;28;20226;-55
2022/11/17 04:35:56;;;;;;;87.03;56.63;;;;;;;11.31;97.93;98234.06;5073567;28;20628;-55
2022/11/17 04:38:23;;;;;;;79.03;56.60;;;;;;;11.32;98.16;98228.06;5073936;28;20249;-55
2022/11/17 04:43:31;;;;;;;89.73;58.27;;;;;;;11.33;97.82;98207.47;5070334;28;20680;-54
2022/11/17 04:45:59;;;;;;;95.93;60.50;;;;;;;11.31;97.55;98201.50;5055919;28;20193;-55
2022/11/17 04:48:28;;;;;;;97.32;65.82;;;;;;;11.33;97.64;98204.03;5038618;28;20517;-56
2022/11/17 04:50:55;;;;;;;87.40;59.33;;;;;;;11.36;97.41;98202.31;5053961;28;20200;-54
2022/11/17 04:53:22;;;;;;;90.67;58.50;;;;;;;11.39;97.88;98184.28;5054253;28;20196;-55
2022/11/17 04:55:49;;;;;;;92.60;60.53;;;;;;;11.36;97.56;98189.44;5048890;28;20598;-55
2022/11/17 04:58:17;;;;;;;82.37;58.17;;;;;;;11.41;97.88;98182.56;5042391;28;20193;-54
2022/11/17 05:00:43;;;;;;;87.20;57.10;;;;;;;11.40;97.44;98175.69;5037829;28;20208;-55
2022/11/17 05:03:10;;;;;;;89.60;59.17;;;;;;;11.43;97.46;98177.38;5039722;28;20199;-54
2022/11/17 05:05:38;;;;;;;90.83;58.70;;;;;;;11.43;97.79;98179.94;5033302;28;20189;-54
2022/11/17 05:08:05;;;;;;;92.43;58.83;;;;;;;11.42;97.84;98173.97;5033308;28;20219;-54
2022/11/17 05:13:24;;;;;;;88.00;59.93;;;;;;;11.24;97.59;98187.81;5033368;28;20191;-55
2022/11/17 05:18:37;;;;;;;93.67;61.77;;;;;;;11.32;98.87;98190.31;5052417;28;20570;-54
2022/11/17 05:21:06;;;;;;;88.97;59.07;;;;;;;11.35;98.83;98194.59;5069969;28;20203;-53
2022/11/17 05:26:17;;;;;;;89.33;58.03;;;;;;;11.41;98.17;98182.56;5075507;28;20179;-55
2022/11/17 05:28:44;;;;;;;90.30;60.90;;;;;;;10.87;97.71;98096.44;5072727;28;20191;-54
2022/11/17 05:31:11;;;;;;;92.80;61.37;;;;;;;11.47;98.19;98190.22;5072366;28;20596;-55
2022/11/17 05:33:38;;;;;;;86.43;58.23;;;;;;;11.56;97.91;98194.44;5072684;28;20202;-54
2022/11/17 05:36:07;;;;;;;93.47;68.35;;;;;;;11.63;97.47;98196.06;5071284;28;20487;-54
2022/11/17 05:38:34;;;;;;;87.07;60.37;;;;;;;11.77;96.66;98204.56;5072554;28;20188;-54
2022/11/17 05:41:01;;;;;;;90.73;60.43;;;;;;;11.68;96.47;98187.44;5057279;28;20199;-54
2022/11/17 05:43:28;;;;;;;86.97;58.73;;;;;;;11.79;96.35;98219.13;5065397;28;20192;-54
2022/11/17 05:45:55;;;;;;;95.95;65.68;;;;;;;11.81;95.86;98213.97;5048773;28;20455;-54
2022/11/17 05:48:22;;;;;;;85.77;60.07;;;;;;;11.80;95.56;98207.09;5031987;28;20208;-54
2022/11/17 05:50:52;;;;;;;88.43;59.50;;;;;;;11.78;95.31;98211.44;5059561;28;20257;-54
2022/11/17 05:53:20;;;;;;;99.60;64.97;;;;;;;11.76;95.88;98213.13;5072156;28;20217;-54
2022/11/17 05:55:47;;;;;;;92.10;62.57;;;;;;;11.69;96.00;98214.06;5052036;28;20195;-54
2022/11/17 05:58:22;;;;;;;103.50;67.03;;;;;;;11.70;96.38;98208.06;5047439;28;20218;-54
2022/11/17 06:00:51;;;;;;;96.23;66.90;;;;;;;11.62;96.37;98212.41;5051807;28;20657;-55
2022/11/17 06:03:22;;;;;;;96.50;63.67;;;;;;;11.60;96.93;98221.81;5051646;28;20214;-54
2022/11/17 06:05:49;;;;;;;92.33;62.50;;;;;;;11.62;96.60;98225.25;5051999;28;20188;-56
2022/11/17 06:08:16;;;;;;;94.53;64.03;;;;;;;11.62;97.22;98217.53;5049218;28;20196;-55
2022/11/17 06:10:45;;;;;;;92.93;65.17;;;;;;;11.68;97.32;98238.03;5051447;28;20211;-55
2022/11/17 06:13:11;;;;;;;91.83;63.13;;;;;;;11.66;96.61;98217.50;5051308;28;20199;-54
2022/11/17 06:15:39;;;;;;;87.63;58.63;;;;;;;11.73;96.78;98218.31;5049590;28;20191;-56
2022/11/17 06:18:11;;;;;;;95.30;60.03;;;;;;;11.75;96.92;98224.31;5050070;28;20218;-54
2022/11/17 06:20:43;;;;;;;88.70;58.73;;;;;;;11.78;96.91;98224.28;5050675;28;20212;-54
2022/11/17 06:23:11;;;;;;;82.43;56.03;;;;;;;11.70;96.90;98206.31;5050625;28;20290;-54
2022/11/17 06:25:39;;;;;;;76.90;51.63;;;;;;;11.81;97.06;98219.13;5050658;28;20212;-55
2022/11/17 06:28:12;;;;;;;78.37;54.33;;;;;;;11.87;97.48;98226.75;5050262;28;20192;-54
2022/11/17 06:30:40;;;;;;;78.10;53.07;;;;;;;11.90;96.79;98221.59;5050689;28;20574;-54
2022/11/17 06:33:10;;;;;;;74.70;52.33;;;;;;;11.84;96.79;98227.63;5052156;28;20238;-55
2022/11/17 06:35:38;;;;;;;84.57;54.63;;;;;;;11.84;96.81;98227.63;5051563;28;20696;-55
2022/11/17 06:38:05;;;;;;;84.17;55.40;;;;;;;11.79;96.79;98226.84;5051189;28;20262;-55
2022/11/17 06:40:32;;;;;;;82.83;55.40;;;;;;;11.82;96.95;98236.25;5051248;28;20249;-55
2022/11/17 06:43:08;;;;;;;83.03;53.10;;;;;;;11.82;96.45;98228.53;5051448;28;20596;-54
2022/11/17 06:45:37;;;;;;;78.10;53.77;;;;;;;11.83;96.63;98227.66;5051154;28;20199;-55
2022/11/17 06:48:05;;;;;;;80.03;54.80;;;;;;;11.78;97.35;98219.16;5050602;28;20631;-55
2022/11/17 06:50:33;;;;;;;83.37;54.87;;;;;;;11.80;97.38;98204.53;5050839;28;20195;-55
2022/11/17 06:53:00;;;;;;;91.00;62.00;;;;;;;11.89;97.72;98208.75;5050943;28;20192;-56
2022/11/17 06:55:28;;;;;;;84.67;56.93;;;;;;;11.93;97.92;98202.69;5051281;28;20189;-55
2022/11/17 06:58:00;;;;;;;87.70;57.00;;;;;;;11.95;97.17;98186.34;5051219;28;20288;-55
2022/11/17 07:00:27;;;;;;;79.70;54.87;;;;;;;11.97;96.59;98181.22;5054628;28;20227;-55
2022/11/17 07:02:59;;;;;;;84.77;56.17;;;;;;;12.02;96.56;98161.41;5055041;28;20192;-55
2022/11/17 07:05:26;;;;;;;91.10;64.90;;;;;;;12.01;97.37;98154.56;5053962;28;20502;-55
2022/11/17 07:07:52;;;;;;;83.80;56.93;;;;;;;12.09;97.33;98161.31;5054426;28;20442;-54
2022/11/17 07:10:19;;;;;;;91.17;58.07;;;;;;;12.09;97.68;98157.88;5054877;28;20192;-55
2022/11/17 07:12:46;;;;;;;96.07;60.17;;;;;;;12.17;97.87;98162.09;5055018;28;20582;-55
2022/11/17 07:15:13;;;;;;;89.07;59.03;;;;;;;12.21;97.73;98166.34;5054777;28;20192;-54
2022/11/17 07:17:40;;;;;;;97.70;61.87;;;;;;;12.22;98.03;98160.31;5053968;28;20220;-56
2022/11/17 07:20:10;;;;;;;92.00;59.77;;;;;;;12.26;98.34;98163.72;5045741;28;20209;-56
2022/11/17 07:22:37;;;;;;;96.70;63.63;;;;;;;12.19;97.88;98157.78;5035152;28;20193;-56
2022/11/17 07:25:05;;;;;;;99.07;60.03;;;;;;;12.10;97.24;98146.72;5035160;28;20193;-55
2022/11/17 07:27:31;;;;;;;88.87;59.37;;;;;;;12.27;97.86;98179.16;5058631;28;20626;-56
2022/11/17 07:29:58;;;;;;;95.60;58.87;;;;;;;12.25;98.64;98180.88;5067663;28;20203;-57
2022/11/17 07:32:25;;;;;;;84.20;59.27;;;;;;;12.20;98.20;98169.78;5054602;28;20729;-57
2022/11/17 07:34:52;;;;;;;93.70;60.73;;;;;;;12.23;98.73;98179.19;5063837;28;20195;-56
2022/11/17 07:37:20;;;;;;;94.53;62.87;;;;;;;12.18;98.15;98174.09;5074696;28;20593;-56
2022/11/17 07:39:47;;;;;;;97.60;66.33;;;;;;;12.28;98.16;98186.00;5074540;28;20188;-56
2022/11/17 07:42:14;;;;;;;97.27;65.43;;;;;;;12.30;98.59;98193.72;5074711;28;20227;-56
2022/11/17 07:44:41;;;;;;;91.80;61.80;;;;;;;12.39;98.54;98212.47;5074945;28;20237;-55
2022/11/17 07:47:07;;;;;;;90.10;58.83;;;;;;;12.38;97.79;98202.19;5073611;28;20245;-55
2022/11/17 07:49:34;;;;;;;87.77;56.53;;;;;;;12.38;98.25;98194.47;5073974;28;20182;-56
2022/11/17 07:52:01;;;;;;;94.73;58.83;;;;;;;12.38;96.98;98210.78;5074560;28;20344;-54
2022/11/17 07:54:29;;;;;;;79.00;58.20;;;;;;;12.35;97.17;98203.09;5054888;28;20185;-55
2022/11/17 07:56:56;;;;;;;82.87;55.30;;;;;;;12.37;97.34;98205.63;5042570;28;20216;-54
2022/11/17 07:59:23;;;;;;;82.43;55.43;;;;;;;12.39;96.56;98199.59;5037803;28;20193;-55
2022/11/17 08:01:50;;;;;;;91.53;57.10;;;;;;;12.44;96.75;98191.84;5047176;28;20203;-54
2022/11/17 08:04:17;;;;;;;85.37;54.33;;;;;;;12.52;96.95;98199.47;5034395;28;20635;-56
2022/11/17 08:06:44;;;;;;;82.27;53.50;;;;;;;12.50;96.83;98198.63;5034668;28;20205;-55
2022/11/17 08:09:13;;;;;;;80.80;53.93;;;;;;;12.41;97.04;98186.72;5041267;28;20229;-55
2022/11/17 08:11:41;;;;;;;83.43;56.27;;;;;;;12.51;97.42;98205.47;5042470;28;20197;-55
2022/11/17 08:14:08;;;;;;;87.57;55.40;;;;;;;12.49;97.85;98209.81;5036457;28;20567;-56
2022/11/17 08:16:35;;;;;;;77.87;54.57;;;;;;;12.46;97.75;98215.84;5043890;28;20224;-56
2022/11/17 08:19:03;;;;;;;81.70;55.37;;;;;;;12.41;97.45;98218.44;5036839;28;20193;-56
2022/11/17 08:21:29;;;;;;;78.27;54.70;;;;;;;12.36;97.32;98221.97;5042976;28;20205;-55
2022/11/17 08:23:56;;;;;;;80.30;54.10;;;;;;;12.34;97.00;98226.28;5044503;28;20211;-55
2022/11/17 08:26:24;;;;;;;84.83;55.80;;;;;;;12.31;96.95;98232.31;5049091;28;20200;-55
2022/11/17 08:28:53;;;;;;;79.93;54.63;;;;;;;12.35;97.77;98231.44;5033713;28;20243;-55
2022/11/17 08:31:20;;;;;;;79.90;53.87;;;;;;;12.36;97.51;98243.41;5037082;28;20226;-56
2022/11/17 08:33:46;;;;;;;76.40;52.57;;;;;;;12.34;96.79;98242.59;5040901;28;20196;-55
2022/11/17 08:36:13;;;;;;;88.30;59.72;;;;;;;12.32;97.27;98252.06;5042227;28;20521;-55
2022/11/17 08:38:40;;;;;;;80.27;55.97;;;;;;;12.40;97.07;98251.97;5036501;28;20300;-55
2022/11/17 08:41:10;;;;;;;81.93;53.13;;;;;;;12.37;97.21;98257.16;5049260;28;20188;-56
2022/11/17 08:43:37;;;;;;;83.07;53.03;;;;;;;12.23;96.66;98266.75;5056503;28;20211;-55
2022/11/17 08:46:05;;;;;;;84.77;56.03;;;;;;;12.16;97.36;98288.28;5070579;28;20434;-55
2022/11/17 08:48:32;;;;;;;89.77;57.60;;;;;;;12.13;98.61;98317.47;5053397;28;20431;-55
2022/11/17 08:51:05;;;;;;;85.57;56.77;;;;;;;12.13;98.58;98330.34;5053285;28;20673;-56
2022/11/17 08:53:32;;;;;;;92.33;58.17;;;;;;;12.01;98.86;98340.75;5053079;28;20192;-55
2022/11/17 08:55:59;;;;;;;83.70;58.27;;;;;;;11.90;99.97;98351.97;5053090;28;20188;-55
2022/11/17 08:58:26;;;;;;;88.23;58.77;;;;;;;11.77;100.00;98358.94;5053037;28;20220;-55
2022/11/17 09:00:53;;;;;;;86.77;56.47;;;;;;;11.75;100.00;98368.41;5053392;28;20184;-55
2022/11/17 09:03:22;;;;;;;78.80;54.13;;;;;;;11.70;100.00;98381.28;5053076;28;20196;-55
2022/11/17 09:05:49;;;;;;;77.13;51.53;;;;;;;11.73;100.00;98385.53;5053372;28;20192;-55
2022/11/17 09:08:17;;;;;;;70.90;48.80;;;;;;;11.79;100.00;98381.22;5052611;28;20203;-56
2022/11/17 09:10:48;;;;;;;67.97;48.27;;;;;;;11.89;100.00;98376.03;5052213;28;20203;-56
2022/11/17 09:13:15;;;;;;;66.97;45.77;;;;;;;11.85;100.00;98354.59;5051882;28;20184;-57
2022/11/17 09:15:42;;;;;;;70.53;47.60;;;;;;;12.07;100.00;98374.16;5050456;28;20253;-57
2022/11/17 09:18:09;;;;;;;64.50;44.77;;;;;;;12.08;100.00;98373.31;5050015;28;20228;-56
2022/11/17 09:20:37;;;;;;;69.05;50.40;;;;;;;12.13;100.00;98360.41;5050480;28;20448;-56
2022/11/17 09:23:04;;;;;;;59.07;42.77;;;;;;;12.19;100.00;98356.06;5050173;28;20199;-56
2022/11/17 09:25:31;;;;;;;56.93;40.13;;;;;;;12.32;100.00;98361.94;5051273;28;20520;-57
2022/11/17 09:27:58;;;;;;;54.07;39.90;;;;;;;12.37;100.00;98358.47;5050072;28;20200;-56
2022/11/17 09:30:24;;;;;;;62.47;44.17;;;;;;;12.39;100.00;98342.97;5050968;28;20284;-55
2022/11/17 09:32:51;;;;;;;66.00;46.73;;;;;;;12.35;100.00;98339.59;5051946;28;20258;-55
2022/11/17 09:35:19;;;;;;;66.17;48.47;;;;;;;12.37;100.00;98313.81;5051905;28;20192;-54
2022/11/17 09:37:47;;;;;;;70.63;50.43;;;;;;;12.31;100.00;98294.13;5051299;28;20219;-55
2022/11/17 09:40:18;;;;;;;76.87;52.03;;;;;;;12.45;100.00;98278.53;5051288;28;20613;-55
2022/11/17 09:42:45;;;;;;;74.30;52.03;;;;;;;12.55;100.00;98266.41;5051632;28;20238;-55
2022/11/17 09:45:21;;;;;;;76.20;51.63;;;;;;;12.63;100.00;98257.72;5051887;28;20188;-55
2022/11/17 09:47:54;;;;;;;72.73;51.23;;;;;;;12.70;100.00;98240.44;5052403;28;20229;-55
2022/11/17 09:50:26;;;;;;;69.70;51.57;;;;;;;12.74;100.00;98217.22;5051956;28;20195;-54
2022/11/17 09:53:03;;;;;;;68.23;48.47;;;;;;;12.82;100.00;98209.38;5052139;28;20184;-54
2022/11/17 09:55:34;;;;;;;65.57;45.83;;;;;;;12.90;100.00;98207.53;5051983;28;20639;-55
2022/11/17 09:58:11;;;;;;;65.33;45.20;;;;;;;12.94;99.77;98209.19;5051796;28;20216;-54
2022/11/17 10:00:40;;;;;;;63.90;43.53;;;;;;;12.99;99.34;98197.94;5051635;28;20696;-54
2022/11/17 10:03:15;;;;;;;63.67;44.70;;;;;;;13.13;99.36;98210.66;5051724;28;20659;-55
2022/11/17 10:05:42;;;;;;;62.70;46.85;;;;;;;13.29;98.97;98204.44;5051362;28;20572;-55
2022/11/17 10:08:16;;;;;;;58.70;41.03;;;;;;;13.40;97.72;98192.22;5051571;28;20650;-56
2022/11/17 10:10:45;;;;;;;56.53;40.33;;;;;;;13.57;96.36;98192.78;5051756;28;20266;-55
2022/11/17 10:13:19;;;;;;;52.23;40.00;;;;;;;13.67;95.50;98187.47;5052036;28;20547;-54
2022/11/17 10:15:49;;;;;;;53.70;39.47;;;;;;;13.77;94.74;98184.69;5050570;28;20207;-55
2022/11/17 10:18:17;;;;;;;48.07;37.60;;;;;;;13.89;93.99;98183.63;5036428;28;20212;-55
2022/11/17 10:20:45;;;;;;;47.57;36.27;;;;;;;13.95;92.46;98191.28;5051417;28;20200;-55
2022/11/17 10:23:17;;;;;;;52.37;41.00;;;;;;;13.99;92.54;98192.91;5051153;28;20679;-55
2022/11/17 10:25:45;;;;;;;61.83;49.58;;;;;;;14.04;93.47;98181.63;5050249;28;20925;-55
2022/11/17 10:28:25;;;;;;;56.07;41.20;;;;;;;14.21;92.76;98181.31;5051412;28;20249;-54
2022/11/17 10:30:58;;;;;;;52.23;38.47;;;;;;;14.05;91.49;98117.91;5060458;28;20203;-54
2022/11/17 10:33:38;;;;;;;54.03;38.70;;;;;;;14.41;90.81;98163.72;5070903;28;20250;-55
2022/11/17 10:36:13;;;;;;;49.63;38.47;;;;;;;14.37;90.51;98156.88;5070983;28;20183;-54
2022/11/17 10:38:44;;;;;;;56.75;44.85;;;;;;;14.08;91.27;98131.63;5070476;28;20445;-55
2022/11/17 10:41:15;;;;;;;50.20;40.33;;;;;;;14.16;91.20;98153.00;5071292;28;20434;-54
2022/11/17 10:43:54;;;;;;;56.85;45.72;;;;;;;13.99;92.66;98157.63;5070229;28;20429;-55
2022/11/17 10:46:22;;;;;;;53.20;41.93;;;;;;;14.25;92.40;98161.44;5049502;28;20193;-55
2022/11/17 10:48:56;;;;;;;58.37;42.20;;;;;;;14.18;92.32;98166.72;5066489;28;20677;-55
2022/11/17 10:51:25;;;;;;;54.60;42.97;;;;;;;14.09;92.58;98163.47;5071207;28;20191;-55
2022/11/17 10:54:04;;;;;;;56.58;44.08;;;;;;;14.06;92.75;98150.63;5070770;28;20516;-55
2022/11/17 10:56:33;;;;;;;61.10;45.00;;;;;;;14.07;93.23;98154.88;5071083;28;20191;-54
2022/11/17 10:59:03;;;;;;;59.23;40.97;;;;;;;14.00;93.06;98161.91;5068539;28;20216;-55
2022/11/17 11:01:33;;;;;;;58.67;39.90;;;;;;;14.15;91.62;98163.31;5071158;28;20187;-55
2022/11/17 11:04:01;;;;;;;55.47;40.27;;;;;;;14.10;91.84;98154.81;5070788;28;20188;-57
2022/11/17 11:06:29;;;;;;;56.73;42.80;;;;;;;14.03;92.37;98135.19;5039336;28;20291;-55
2022/11/17 11:09:00;;;;;;;55.93;42.37;;;;;;;14.28;92.83;98169.13;5058396;28;20236;-55
2022/11/17 11:11:41;;;;;;;65.30;44.63;;;;;;;14.42;92.64;98165.41;5063021;28;20187;-55
2022/11/17 11:14:16;;;;;;;63.30;44.43;;;;;;;14.61;92.13;98151.22;5039939;28;20197;-54
2022/11/17 11:16:46;;;;;;;62.63;46.20;;;;;;;14.97;90.90;98170.22;5031039;28;20188;-56
2022/11/17 11:19:15;;;;;;;54.17;41.33;;;;;;;14.97;89.65;98167.66;5030625;28;20230;-55
2022/11/17 11:22:02;;;;;;;59.53;41.40;;;;;;;15.03;89.57;98177.88;5030380;28;20667;-55
2022/11/17 11:24:38;;;;;;;47.87;35.90;;;;;;;14.99;89.06;98180.56;5048615;28;20198;-55
2022/11/17 11:27:24;;;;;;;44.93;34.70;;;;;;;15.03;89.53;98179.59;5060815;28;20216;-54
2022/11/17 11:30:01;;;;;;;47.70;34.07;;;;;;;15.16;88.38;98170.69;5070793;28;20508;-55
2022/11/17 11:32:37;;;;;;;44.83;32.43;;;;;;;15.22;87.96;98167.94;5070653;28;20215;-55
2022/11/17 11:35:30;;;;;;;47.63;33.57;;;;;;;15.29;88.45;98170.38;5071411;28;20198;-54
2022/11/17 11:38:07;;;;;;;48.67;39.63;;;;;;;15.46;89.21;98163.94;5041999;28;20816;-55
2022/11/17 11:40:39;;;;;;;46.33;36.60;;;;;;;15.62;88.22;98152.34;5041456;28;20192;-54
2022/11/17 11:43:26;;;;;;;46.07;36.27;;;;;;;15.97;87.53;98161.75;5047746;28;20199;-54
2022/11/17 11:46:05;;;;;;;49.67;37.00;;;;;;;15.64;86.82;98101.34;5045293;28;20200;-54
2022/11/17 11:48:34;;;;;;;54.73;39.17;;;;;;;16.18;87.38;98156.84;5041303;28;20222;-55
2022/11/17 11:51:05;;;;;;;49.33;37.23;;;;;;;16.32;86.63;98165.09;5054084;28;20208;-55
2022/11/17 11:53:38;;;;;;;45.47;35.20;;;;;;;16.36;85.93;98166.72;5054250;28;20253;-55
2022/11/17 11:56:14;;;;;;;49.00;38.47;;;;;;;16.28;85.33;98181.63;5052866;28;20193;-53
2022/11/17 11:58:47;;;;;;;52.83;39.07;;;;;;;16.27;85.17;98187.69;5034266;28;20224;-53
2022/11/17 12:01:17;;;;;;;51.10;40.73;;;;;;;16.17;85.34;98155.16;5048555;28;20188;-55
2022/11/17 12:03:50;;;;;;;53.90;39.73;;;;;;;16.26;84.93;98169.63;5034625;28;20563;-56